Time;durP1;ratioP1;P1;durP2;ratioP2;P2;SDS_P1;SDS_P2;PMS_P1;PMS_P2;Temp;Humidity;BMP_temperature;BMP_pressure;BME280_temperature;BME280_humidity;BME280_pressure;Samples;Min_cycle;Max_cycle;Signal;HPM_P1;HPM_P2
2022/11/22 00:03:24;;;;;;;26.75;10.32;;;;;;;;;;10497218;28;20205;-69
2022/11/22 00:08:25;;;;;;;23.97;9.83;;;;;;;;;;10503618;28;20757;-69
2022/11/22 00:13:26;;;;;;;25.17;11.47;;;;;;;;;;10488469;28;20700;-68
2022/11/22 00:18:28;;;;;;;26.87;11.43;;;;;;;;;;10501025;28;20220;-71
2022/11/22 00:23:29;;;;;;;23.45;10.20;;;;;;;;;;10507445;28;20260;-68
2022/11/22 00:28:30;;;;;;;27.20;10.98;;;;;;;;;;10482949;28;20225;-68
2022/11/22 00:33:31;;;;;;;28.25;10.93;;;;;;;;;;10494187;28;20300;-71
2022/11/22 00:38:33;;;;;;;24.38;10.20;;;;;;;;;;10497629;28;20270;-71
2022/11/22 00:43:34;;;;;;;28.87;10.27;;;;;;;;;;10511187;28;20638;-68
2022/11/22 00:48:35;;;;;;;18.80;7.72;;;;;;;;;;10494475;28;20217;-68
2022/11/22 00:53:36;;;;;;;20.67;10.10;;;;;;;;;;10496844;28;20213;-68
2022/11/22 00:58:38;;;;;;;28.40;10.68;;;;;;;;;;10507989;28;21031;-68
2022/11/22 01:03:39;;;;;;;28.17;11.07;;;;;;;;;;10508222;28;20289;-68
2022/11/22 01:08:40;;;;;;;22.00;9.45;;;;;;;;;;10498038;28;20230;-68
2022/11/22 01:13:41;;;;;;;22.43;10.37;;;;;;;;;;10508710;28;20338;-68
2022/11/22 01:18:42;;;;;;;21.85;10.40;;;;;;;;;;10506779;28;20214;-68
2022/11/22 01:23:44;;;;;;;16.73;8.87;;;;;;;;;;10509490;28;20220;-71
2022/11/22 01:28:45;;;;;;;17.57;8.83;;;;;;;;;;10504918;28;20214;-68
2022/11/22 01:33:46;;;;;;;16.92;9.30;;;;;;;;;;10496540;28;20213;-68
2022/11/22 01:38:47;;;;;;;12.00;6.68;;;;;;;;;;10496456;28;20253;-68
2022/11/22 01:43:48;;;;;;;11.73;7.13;;;;;;;;;;10493760;28;20266;-71
2022/11/22 01:48:52;;;;;;;11.37;6.33;;;;;;;;;;10502249;28;20218;-71
2022/11/22 01:53:55;;;;;;;15.73;7.93;;;;;;;;;;10507328;28;20322;-71
2022/11/22 01:58:59;;;;;;;18.15;8.18;;;;;;;;;;10501865;28;20202;-68
2022/11/22 02:04:01;;;;;;;18.23;8.25;;;;;;;;;;10488896;28;20309;-69
2022/11/22 02:09:12;;;;;;;17.20;6.63;;;;;;;;;;10489333;28;20210;-70
2022/11/22 02:14:14;;;;;;;18.67;9.07;;;;;;;;;;10490303;28;20692;-71
2022/11/22 02:19:19;;;;;;;20.52;8.85;;;;;;;;;;10488429;28;20226;-69
2022/11/22 02:24:23;;;;;;;18.77;8.07;;;;;;;;;;10510041;28;20301;-68
2022/11/22 02:29:24;;;;;;;17.73;8.20;;;;;;;;;;10490134;28;20237;-68
2022/11/22 02:34:25;;;;;;;12.40;4.85;;;;;;;;;;10490823;28;20220;-68
2022/11/22 02:39:30;;;;;;;20.02;8.50;;;;;;;;;;10487034;28;20216;-69
2022/11/22 02:44:31;;;;;;;16.45;8.10;;;;;;;;;;10487345;28;20217;-68
2022/11/22 02:49:33;;;;;;;16.00;7.90;;;;;;;;;;10502715;28;20221;-68
2022/11/22 02:54:34;;;;;;;14.80;8.15;;;;;;;;;;10492215;28;20232;-68
2022/11/22 02:59:35;;;;;;;17.70;8.52;;;;;;;;;;10504789;28;20232;-69
2022/11/22 03:04:36;;;;;;;13.97;7.47;;;;;;;;;;10482408;28;20593;-68
2022/11/22 03:09:37;;;;;;;17.23;8.20;;;;;;;;;;10503976;28;20216;-68
2022/11/22 03:14:38;;;;;;;15.88;8.02;;;;;;;;;;10500915;28;20266;-68
2022/11/22 03:19:39;;;;;;;15.40;7.45;;;;;;;;;;10502772;28;20280;-69
2022/11/22 03:24:40;;;;;;;12.60;7.63;;;;;;;;;;10471545;28;20508;-69
2022/11/22 03:29:42;;;;;;;13.55;6.82;;;;;;;;;;10497184;28;20275;-69
2022/11/22 03:34:43;;;;;;;18.80;8.10;;;;;;;;;;10501986;28;20216;-68
2022/11/22 03:39:44;;;;;;;13.48;7.65;;;;;;;;;;10487695;28;20271;-70
2022/11/22 03:44:45;;;;;;;17.37;8.77;;;;;;;;;;10497500;28;20627;-71
2022/11/22 03:49:46;;;;;;;15.10;7.80;;;;;;;;;;10496828;28;20210;-71
2022/11/22 03:54:47;;;;;;;14.67;7.23;;;;;;;;;;10485029;28;20732;-70
2022/11/22 03:59:49;;;;;;;18.27;7.93;;;;;;;;;;10495457;28;20209;-71
2022/11/22 04:04:50;;;;;;;19.38;7.70;;;;;;;;;;10481838;28;20261;-70
2022/11/22 04:09:51;;;;;;;20.00;7.70;;;;;;;;;;10496208;28;20221;-69
2022/11/22 04:15:07;;;;;;;16.58;8.52;;;;;;;;;;10486177;28;20674;-70
2022/11/22 04:25:32;;;;;;;14.07;6.43;;;;;;;;;;10486121;28;20297;-68
2022/11/22 04:35:54;;;;;;;13.18;6.93;;;;;;;;;;10498225;28;20212;-69
2022/11/22 04:40:55;;;;;;;16.98;7.93;;;;;;;;;;10484286;28;20270;-68
2022/11/22 04:45:56;;;;;;;17.95;7.68;;;;;;;;;;10479747;28;20218;-68
2022/11/22 04:56:17;;;;;;;16.42;7.70;;;;;;;;;;10487675;28;20210;-67
2022/11/22 05:01:19;;;;;;;13.05;6.63;;;;;;;;;;10481968;28;20225;-67
2022/11/22 05:06:20;;;;;;;11.95;5.93;;;;;;;;;;10483863;28;20228;-70
2022/11/22 05:11:21;;;;;;;12.33;6.70;;;;;;;;;;10485410;28;20222;-69
2022/11/22 05:16:22;;;;;;;13.60;7.28;;;;;;;;;;10506192;28;20751;-69
2022/11/22 05:21:23;;;;;;;14.15;7.18;;;;;;;;;;10487735;28;20228;-68
2022/11/22 05:26:24;;;;;;;17.10;7.20;;;;;;;;;;10492118;28;20267;-69
2022/11/22 05:31:26;;;;;;;16.30;7.13;;;;;;;;;;10506107;28;20889;-68
2022/11/22 05:36:30;;;;;;;14.27;7.03;;;;;;;;;;10490808;28;20544;-68
2022/11/22 05:41:31;;;;;;;13.03;6.63;;;;;;;;;;10500360;28;21685;-69
2022/11/22 05:46:32;;;;;;;9.90;5.72;;;;;;;;;;10484637;28;20673;-68
2022/11/22 05:51:33;;;;;;;14.85;8.02;;;;;;;;;;10486866;28;20225;-69
2022/11/22 05:56:34;;;;;;;16.43;7.70;;;;;;;;;;10494206;28;20236;-69
2022/11/22 06:01:36;;;;;;;10.75;5.85;;;;;;;;;;10497238;28;20669;-69
2022/11/22 06:06:37;;;;;;;17.87;7.70;;;;;;;;;;10502985;28;20214;-69
2022/11/22 06:11:38;;;;;;;13.18;6.78;;;;;;;;;;10495815;28;20225;-68
2022/11/22 06:16:39;;;;;;;12.30;6.07;;;;;;;;;;10478673;28;20209;-69
2022/11/22 06:21:41;;;;;;;8.60;4.55;;;;;;;;;;10498707;28;20225;-69
2022/11/22 06:26:42;;;;;;;15.10;8.43;;;;;;;;;;10486387;28;20252;-69
2022/11/22 06:31:43;;;;;;;12.98;7.45;;;;;;;;;;10498890;28;20774;-68
2022/11/22 06:36:45;;;;;;;13.48;7.60;;;;;;;;;;10499180;28;20304;-68
2022/11/22 06:41:46;;;;;;;21.70;9.30;;;;;;;;;;10466672;28;20323;-69
2022/11/22 06:46:47;;;;;;;10.40;6.93;;;;;;;;;;10498991;28;20218;-69
2022/11/22 06:51:48;;;;;;;11.23;5.65;;;;;;;;;;10484740;28;20976;-69
2022/11/22 06:56:49;;;;;;;13.53;6.03;;;;;;;;;;10478155;28;20240;-69
2022/11/22 07:01:51;;;;;;;9.13;5.05;;;;;;;;;;10491452;28;20213;-69
2022/11/22 07:06:52;;;;;;;9.43;4.97;;;;;;;;;;10481989;28;20304;-70
2022/11/22 07:11:53;;;;;;;13.90;7.73;;;;;;;;;;10499605;28;20718;-68
2022/11/22 07:16:54;;;;;;;10.45;6.10;;;;;;;;;;10502321;28;20225;-68
2022/11/22 07:21:55;;;;;;;14.00;8.10;;;;;;;;;;10505119;28;20249;-67
2022/11/22 07:26:56;;;;;;;17.03;7.33;;;;;;;;;;10483415;28;21046;-67
2022/11/22 07:31:57;;;;;;;8.90;5.40;;;;;;;;;;10470262;28;20647;-70
2022/11/22 07:36:58;;;;;;;14.10;6.75;;;;;;;;;;10501078;28;20209;-68
2022/11/22 07:41:59;;;;;;;10.65;6.15;;;;;;;;;;10480500;28;20308;-69
2022/11/22 07:47:01;;;;;;;16.90;8.50;;;;;;;;;;10503572;28;20213;-68
2022/11/22 07:52:02;;;;;;;12.63;6.60;;;;;;;;;;10503180;28;20232;-69
2022/11/22 07:57:03;;;;;;;17.27;7.87;;;;;;;;;;10501731;28;20213;-69
2022/11/22 08:02:04;;;;;;;11.23;7.15;;;;;;;;;;10499436;28;20216;-69
2022/11/22 08:07:05;;;;;;;9.33;5.97;;;;;;;;;;10489007;28;20216;-68
2022/11/22 08:12:06;;;;;;;17.02;7.35;;;;;;;;;;10470534;28;20712;-69
2022/11/22 08:17:08;;;;;;;12.07;6.80;;;;;;;;;;10478691;28;20210;-69
2022/11/22 08:22:09;;;;;;;14.17;7.30;;;;;;;;;;10487374;28;20221;-68
2022/11/22 08:27:10;;;;;;;19.13;8.47;;;;;;;;;;10500669;28;20320;-69
2022/11/22 08:32:12;;;;;;;12.40;6.90;;;;;;;;;;10501998;28;20651;-68
2022/11/22 08:37:13;;;;;;;9.70;5.85;;;;;;;;;;10500306;28;20209;-69
2022/11/22 08:42:14;;;;;;;10.82;5.65;;;;;;;;;;10493992;28;20985;-70
2022/11/22 08:47:15;;;;;;;12.63;7.17;;;;;;;;;;10498878;28;20221;-70
2022/11/22 08:52:17;;;;;;;11.18;6.07;;;;;;;;;;10511545;28;20299;-67
2022/11/22 08:57:18;;;;;;;11.10;6.85;;;;;;;;;;10505608;28;20212;-68
2022/11/22 09:02:19;;;;;;;16.83;5.85;;;;;;;;;;10494763;28;20300;-68
2022/11/22 09:07:20;;;;;;;13.18;7.32;;;;;;;;;;10509130;28;20209;-67
2022/11/22 09:12:21;;;;;;;13.60;7.95;;;;;;;;;;10486837;28;20315;-68
2022/11/22 09:17:22;;;;;;;12.32;7.85;;;;;;;;;;10490657;28;20210;-67
2022/11/22 09:22:23;;;;;;;13.35;6.88;;;;;;;;;;10472631;28;20228;-66
2022/11/22 09:27:25;;;;;;;10.50;5.30;;;;;;;;;;10453620;28;20303;-68
2022/11/22 09:32:26;;;;;;;9.43;7.13;;;;;;;;;;10450263;28;20777;-69
2022/11/22 09:37:27;;;;;;;10.48;6.53;;;;;;;;;;10461112;28;20219;-69
2022/11/22 09:42:38;;;;;;;8.65;6.20;;;;;;;;;;10463331;28;20214;-69
2022/11/22 09:47:50;;;;;;;14.25;7.55;;;;;;;;;;10463164;28;20551;-69
2022/11/22 09:53:10;;;;;;;14.55;7.43;;;;;;;;;;10459495;28;20254;-69
2022/11/22 09:58:29;;;;;;;13.27;7.85;;;;;;;;;;10460028;28;20308;-70
2022/11/22 10:03:40;;;;;;;10.43;7.17;;;;;;;;;;10445771;28;20201;-67
2022/11/22 10:08:45;;;;;;;14.80;8.18;;;;;;;;;;10461198;28;20706;-68
2022/11/22 10:13:50;;;;;;;12.13;6.82;;;;;;;;;;10448540;28;20215;-68
2022/11/22 10:19:00;;;;;;;11.80;7.13;;;;;;;;;;10457680;28;20265;-68
2022/11/22 10:24:02;;;;;;;11.77;6.38;;;;;;;;;;10494567;28;20206;-69
2022/11/22 10:29:09;;;;;;;14.45;7.63;;;;;;;;;;10500149;28;20233;-68
2022/11/22 10:34:16;;;;;;;18.80;7.85;;;;;;;;;;10487676;28;20213;-69
2022/11/22 10:39:20;;;;;;;16.85;6.22;;;;;;;;;;10488067;28;20238;-70
2022/11/22 10:44:27;;;;;;;14.43;8.10;;;;;;;;;;10494920;28;20218;-69
2022/11/22 10:49:31;;;;;;;10.32;6.50;;;;;;;;;;10497182;28;20214;-68
2022/11/22 10:54:37;;;;;;;16.50;7.45;;;;;;;;;;10500483;28;20293;-70
2022/11/22 10:59:42;;;;;;;14.95;7.78;;;;;;;;;;10483647;28;20202;-70
2022/11/22 11:04:43;;;;;;;14.63;8.10;;;;;;;;;;10496154;28;20277;-70
2022/11/22 11:09:56;;;;;;;11.75;6.53;;;;;;;;;;10481247;28;20214;-70
2022/11/22 11:15:01;;;;;;;14.63;6.57;;;;;;;;;;10491954;28;20213;-70
2022/11/22 11:20:06;;;;;;;12.82;7.82;;;;;;;;;;10483158;28;20823;-71
2022/11/22 11:25:26;;;;;;;12.20;7.25;;;;;;;;;;10496936;28;20837;-71
2022/11/22 11:30:27;;;;;;;12.63;7.32;;;;;;;;;;10485735;28;20229;-70
2022/11/22 11:35:29;;;;;;;9.40;5.55;;;;;;;;;;10496315;28;20311;-70
2022/11/22 11:40:32;;;;;;;13.20;6.72;;;;;;;;;;10469271;28;20261;-70
2022/11/22 11:45:33;;;;;;;15.80;7.72;;;;;;;;;;10506362;28;20213;-69
2022/11/22 11:50:34;;;;;;;12.23;6.35;;;;;;;;;;10482822;28;20228;-68
2022/11/22 11:55:36;;;;;;;14.20;6.97;;;;;;;;;;10490101;28;20242;-69
2022/11/22 12:00:38;;;;;;;12.07;7.13;;;;;;;;;;10484614;28;20216;-68
2022/11/22 12:05:39;;;;;;;10.80;6.13;;;;;;;;;;10484215;28;20206;-69
2022/11/22 12:10:48;;;;;;;7.97;6.38;;;;;;;;;;10486592;28;20218;-69
2022/11/22 12:16:08;;;;;;;10.90;5.07;;;;;;;;;;10471895;28;20213;-71
2022/11/22 12:21:28;;;;;;;8.15;5.13;;;;;;;;;;10502027;28;20256;-71
2022/11/22 12:26:30;;;;;;;12.98;7.80;;;;;;;;;;10482563;28;20300;-71
2022/11/22 12:31:34;;;;;;;10.70;6.22;;;;;;;;;;10485107;28;20593;-70
2022/11/22 12:36:46;;;;;;;10.00;6.07;;;;;;;;;;10496358;28;20220;-69
2022/11/22 12:41:49;;;;;;;12.02;7.15;;;;;;;;;;10501114;28;20226;-69
2022/11/22 12:46:54;;;;;;;11.52;6.50;;;;;;;;;;10483577;28;20649;-66
2022/11/22 12:51:57;;;;;;;11.07;7.63;;;;;;;;;;10496466;28;20221;-70
2022/11/22 12:57:00;;;;;;;12.80;7.22;;;;;;;;;;10481635;28;20209;-68
2022/11/22 13:02:21;;;;;;;12.30;7.43;;;;;;;;;;10501063;28;21023;-69
2022/11/22 13:07:22;;;;;;;9.95;6.43;;;;;;;;;;10464125;28;20716;-70
2022/11/22 13:12:27;;;;;;;9.65;7.18;;;;;;;;;;10503360;28;20291;-69
2022/11/22 13:17:33;;;;;;;17.25;7.70;;;;;;;;;;10480932;28;20293;-71
2022/11/22 13:22:53;;;;;;;13.80;6.85;;;;;;;;;;10483137;28;20661;-70
2022/11/22 13:27:58;;;;;;;11.90;6.68;;;;;;;;;;10502795;28;20604;-70
2022/11/22 13:33:00;;;;;;;8.18;6.28;;;;;;;;;;10490654;28;20282;-70
2022/11/22 13:38:17;;;;;;;9.70;6.32;;;;;;;;;;10502653;28;21009;-70
2022/11/22 13:43:18;;;;;;;8.57;6.68;;;;;;;;;;10498461;28;20229;-70
2022/11/22 13:48:38;;;;;;;9.13;7.07;;;;;;;;;;10471884;28;20572;-69
2022/11/22 13:53:42;;;;;;;14.70;8.23;;;;;;;;;;10505738;28;20214;-70
2022/11/22 13:58:50;;;;;;;14.32;7.60;;;;;;;;;;10492618;28;20213;-70
2022/11/22 14:03:51;;;;;;;11.35;6.20;;;;;;;;;;10486117;28;20288;-68
2022/11/22 14:09:11;;;;;;;11.50;7.60;;;;;;;;;;10495937;28;20286;-68
2022/11/22 14:14:18;;;;;;;17.02;7.88;;;;;;;;;;10507806;28;20214;-70
2022/11/22 14:19:39;;;;;;;12.60;7.68;;;;;;;;;;10488664;28;20339;-68
2022/11/22 14:24:45;;;;;;;9.38;6.88;;;;;;;;;;10506085;28;21037;-69
2022/11/22 14:30:04;;;;;;;12.45;7.88;;;;;;;;;;10508079;28;20225;-69
2022/11/22 14:35:05;;;;;;;12.05;7.07;;;;;;;;;;10483901;28;20210;-69
2022/11/22 14:40:07;;;;;;;12.20;6.72;;;;;;;;;;10490375;28;20209;-70
2022/11/22 14:45:11;;;;;;;14.95;7.85;;;;;;;;;;10482856;28;20588;-68
2022/11/22 14:50:17;;;;;;;14.18;6.97;;;;;;;;;;10503307;28;20225;-69
2022/11/22 14:55:21;;;;;;;13.10;7.13;;;;;;;;;;10504633;28;20685;-69
2022/11/22 15:00:23;;;;;;;14.13;7.90;;;;;;;;;;10485568;28;20675;-67
2022/11/22 15:05:33;;;;;;;10.90;7.13;;;;;;;;;;10486971;28;20308;-71
2022/11/22 15:10:49;;;;;;;12.90;6.95;;;;;;;;;;10488853;28;20297;-67
2022/11/22 15:15:51;;;;;;;10.02;7.00;;;;;;;;;;10475840;28;20213;-68
2022/11/22 15:20:54;;;;;;;13.80;7.75;;;;;;;;;;10498762;28;20225;-70
2022/11/22 15:26:05;;;;;;;15.05;7.43;;;;;;;;;;10498719;28;20644;-71
2022/11/22 15:31:11;;;;;;;10.35;6.60;;;;;;;;;;10482699;28;20653;-72
2022/11/22 15:36:12;;;;;;;12.70;6.90;;;;;;;;;;10504156;28;20260;-71
2022/11/22 15:41:15;;;;;;;9.85;6.60;;;;;;;;;;10495170;28;20288;-71
2022/11/22 15:46:19;;;;;;;12.88;7.15;;;;;;;;;;10499790;28;20213;-71
2022/11/22 15:51:21;;;;;;;10.77;6.88;;;;;;;;;;10487186;28;21290;-70
2022/11/22 15:56:28;;;;;;;10.68;6.95;;;;;;;;;;10504480;28;20243;-70
2022/11/22 16:01:29;;;;;;;13.07;7.32;;;;;;;;;;10499386;28;20213;-70
2022/11/22 16:06:31;;;;;;;12.93;7.13;;;;;;;;;;10487812;28;20220;-70
2022/11/22 16:11:34;;;;;;;13.05;7.78;;;;;;;;;;10493709;28;20312;-70
2022/11/22 16:16:35;;;;;;;12.48;7.53;;;;;;;;;;10498204;28;20225;-70
2022/11/22 16:21:36;;;;;;;10.85;7.25;;;;;;;;;;10488014;28;20232;-70
2022/11/22 16:26:38;;;;;;;11.60;7.53;;;;;;;;;;10489079;28;20222;-70
2022/11/22 16:31:40;;;;;;;14.00;7.60;;;;;;;;;;10493425;28;20217;-70
2022/11/22 16:36:41;;;;;;;25.13;11.10;;;;;;;;;;10498141;28;20727;-71
2022/11/22 16:41:42;;;;;;;17.35;9.23;;;;;;;;;;10487033;28;20660;-70
2022/11/22 16:46:43;;;;;;;19.85;9.50;;;;;;;;;;10500445;28;20251;-71
2022/11/22 16:51:45;;;;;;;17.05;8.85;;;;;;;;;;10487537;28;20222;-71
2022/11/22 16:56:46;;;;;;;14.85;8.02;;;;;;;;;;10497081;28;20697;-71
2022/11/22 17:01:48;;;;;;;11.75;7.38;;;;;;;;;;10501627;28;20317;-70
2022/11/22 17:06:50;;;;;;;13.00;7.75;;;;;;;;;;10509623;28;20213;-71
2022/11/22 17:11:51;;;;;;;11.93;7.30;;;;;;;;;;10499431;28;20221;-72
2022/11/22 17:16:52;;;;;;;14.05;8.60;;;;;;;;;;10501630;28;20716;-72
2022/11/22 17:21:53;;;;;;;10.80;6.20;;;;;;;;;;10504994;28;20259;-72
2022/11/22 17:26:55;;;;;;;12.27;6.97;;;;;;;;;;10487360;28;20209;-72
2022/11/22 17:31:56;;;;;;;14.55;7.38;;;;;;;;;;10501974;28;20226;-71
2022/11/22 17:36:57;;;;;;;14.40;8.80;;;;;;;;;;10493164;28;20723;-73
2022/11/22 17:41:58;;;;;;;18.58;9.32;;;;;;;;;;10480736;28;20293;-70
2022/11/22 17:46:59;;;;;;;21.27;11.93;;;;;;;;;;10502730;28;20771;-70
2022/11/22 17:52:00;;;;;;;17.95;10.10;;;;;;;;;;10490863;28;20320;-69
2022/11/22 17:57:02;;;;;;;19.40;10.05;;;;;;;;;;10495181;28;20221;-71
2022/11/22 18:02:03;;;;;;;15.85;8.45;;;;;;;;;;10504520;28;20585;-70
2022/11/22 18:07:04;;;;;;;14.65;8.45;;;;;;;;;;10500814;28;20218;-71
2022/11/22 18:12:05;;;;;;;18.08;9.27;;;;;;;;;;10500118;28;20333;-71
2022/11/22 18:17:06;;;;;;;18.50;8.82;;;;;;;;;;10503628;28;20221;-71
2022/11/22 18:22:07;;;;;;;17.90;9.63;;;;;;;;;;10489401;28;20217;-71
2022/11/22 18:27:09;;;;;;;41.30;14.23;;;;;;;;;;10501845;28;20237;-70
2022/11/22 18:32:10;;;;;;;24.45;12.02;;;;;;;;;;10484618;28;20218;-71
2022/11/22 18:37:11;;;;;;;25.40;11.75;;;;;;;;;;10468802;28;20299;-71
2022/11/22 18:42:14;;;;;;;20.55;10.30;;;;;;;;;;10495494;28;20272;-72
2022/11/22 18:47:15;;;;;;;20.55;10.20;;;;;;;;;;10501782;28;20263;-73
2022/11/22 18:52:17;;;;;;;15.23;8.95;;;;;;;;;;10502006;28;20222;-73
2022/11/22 18:57:18;;;;;;;16.27;8.95;;;;;;;;;;10489137;28;20241;-72
2022/11/22 19:02:24;;;;;;;23.88;11.60;;;;;;;;;;10482023;28;20213;-74
2022/11/22 19:07:25;;;;;;;18.40;9.48;;;;;;;;;;10487239;28;20212;-72
2022/11/22 19:12:26;;;;;;;13.50;8.95;;;;;;;;;;10506762;28;20217;-73
2022/11/22 19:17:28;;;;;;;33.72;15.98;;;;;;;;;;10487281;28;20679;-72
2022/11/22 19:22:29;;;;;;;16.98;10.23;;;;;;;;;;10474154;28;20642;-73
2022/11/22 19:27:30;;;;;;;16.45;8.80;;;;;;;;;;10489380;28;20774;-72
2022/11/22 19:32:31;;;;;;;20.45;9.45;;;;;;;;;;10508960;28;20235;-72
2022/11/22 19:37:32;;;;;;;30.58;15.77;;;;;;;;;;10496470;28;20210;-72
2022/11/22 19:42:37;;;;;;;21.98;11.23;;;;;;;;;;10499506;28;20240;-72
2022/11/22 19:47:38;;;;;;;33.15;18.00;;;;;;;;;;10479497;28;20271;-72
2022/11/22 19:52:39;;;;;;;28.67;13.18;;;;;;;;;;10483325;28;20225;-71
2022/11/22 19:57:40;;;;;;;25.75;12.07;;;;;;;;;;10467602;28;20677;-73
2022/11/22 20:02:42;;;;;;;19.63;12.00;;;;;;;;;;10500389;28;20216;-74
2022/11/22 20:07:43;;;;;;;16.58;10.18;;;;;;;;;;10482308;28;20304;-71
2022/11/22 20:12:45;;;;;;;16.67;10.98;;;;;;;;;;10486281;28;20720;-69
2022/11/22 20:17:46;;;;;;;21.88;11.10;;;;;;;;;;10477978;28;20198;-72
2022/11/22 20:22:47;;;;;;;18.98;10.98;;;;;;;;;;10486752;28;20218;-66
2022/11/22 20:27:48;;;;;;;22.10;10.10;;;;;;;;;;10499615;28;20632;-70
2022/11/22 20:32:51;;;;;;;18.98;9.02;;;;;;;;;;10500095;28;20217;-68
2022/11/22 20:37:52;;;;;;;16.02;9.60;;;;;;;;;;10498410;28;20209;-67
2022/11/22 20:42:53;;;;;;;22.23;10.97;;;;;;;;;;10500603;28;20696;-68
2022/11/22 20:47:55;;;;;;;19.13;9.35;;;;;;;;;;10491973;28;20220;-84
2022/11/22 20:52:56;;;;;;;19.47;9.97;;;;;;;;;;10527891;28;20209;-86
2022/11/22 20:57:57;;;;;;;22.40;11.37;;;;;;;;;;10507521;28;20275;-73
2022/11/22 21:02:58;;;;;;;19.98;10.23;;;;;;;;;;10500817;28;20213;-72
2022/11/22 21:07:59;;;;;;;20.73;11.18;;;;;;;;;;10488383;28;20225;-69
2022/11/22 21:13:01;;;;;;;17.57;9.43;;;;;;;;;;10488035;28;20229;-70
2022/11/22 21:18:05;;;;;;;14.57;7.90;;;;;;;;;;10509689;28;20213;-69
2022/11/22 21:23:06;;;;;;;14.07;7.73;;;;;;;;;;10497684;28;20710;-70
2022/11/22 21:28:07;;;;;;;20.08;8.35;;;;;;;;;;10486401;28;20248;-70
2022/11/22 21:33:08;;;;;;;13.77;7.60;;;;;;;;;;10490457;28;20225;-69
2022/11/22 21:38:09;;;;;;;17.42;8.20;;;;;;;;;;10506230;28;20747;-70
2022/11/22 21:43:10;;;;;;;17.40;9.38;;;;;;;;;;10492509;28;20309;-69
2022/11/22 21:48:12;;;;;;;15.30;8.07;;;;;;;;;;10507218;28;20225;-70
2022/11/22 21:53:13;;;;;;;12.68;8.00;;;;;;;;;;10506416;28;20217;-69
2022/11/22 21:58:14;;;;;;;16.47;8.30;;;;;;;;;;10507877;28;20218;-69
2022/11/22 22:03:16;;;;;;;16.73;8.17;;;;;;;;;;10506050;28;20206;-70
2022/11/22 22:08:18;;;;;;;17.15;7.90;;;;;;;;;;10476744;28;20576;-71
2022/11/22 22:13:19;;;;;;;14.48;8.02;;;;;;;;;;10495482;28;20351;-70
2022/11/22 22:18:20;;;;;;;12.63;7.72;;;;;;;;;;10509606;28;20210;-69
2022/11/22 22:23:23;;;;;;;18.15;8.40;;;;;;;;;;10436574;28;20656;-68
2022/11/22 22:28:24;;;;;;;14.43;8.43;;;;;;;;;;10445674;28;20925;-68
2022/11/22 22:33:25;;;;;;;17.13;8.77;;;;;;;;;;10467879;28;20218;-71
2022/11/22 22:38:26;;;;;;;11.48;7.10;;;;;;;;;;10468639;28;20218;-69
2022/11/22 22:43:32;;;;;;;15.13;7.78;;;;;;;;;;10452369;28;20218;-68
2022/11/22 22:48:33;;;;;;;14.43;8.30;;;;;;;;;;10460516;28;20234;-68
2022/11/22 22:53:35;;;;;;;14.52;7.55;;;;;;;;;;10459540;28;20255;-69
2022/11/22 22:58:36;;;;;;;15.57;7.43;;;;;;;;;;10459867;28;20237;-69
2022/11/22 23:03:37;;;;;;;9.95;6.90;;;;;;;;;;10464010;28;20214;-70
2022/11/22 23:08:38;;;;;;;11.88;6.68;;;;;;;;;;10440736;28;20236;-69
2022/11/22 23:13:41;;;;;;;12.45;7.20;;;;;;;;;;10460141;28;20584;-68
2022/11/22 23:18:43;;;;;;;14.13;6.78;;;;;;;;;;10463436;28;20287;-68
2022/11/22 23:23:44;;;;;;;10.50;6.90;;;;;;;;;;10498730;28;20241;-68
2022/11/22 23:28:45;;;;;;;11.43;7.47;;;;;;;;;;10484953;28;20214;-69
2022/11/22 23:33:47;;;;;;;12.05;6.40;;;;;;;;;;10502633;28;20846;-69
2022/11/22 23:38:48;;;;;;;11.48;7.80;;;;;;;;;;10475877;28;20688;-68
2022/11/22 23:43:53;;;;;;;16.17;7.22;;;;;;;;;;10499539;28;20569;-69
2022/11/22 23:48:55;;;;;;;11.68;7.38;;;;;;;;;;10487981;28;20240;-69
2022/11/22 23:53:58;;;;;;;10.63;6.10;;;;;;;;;;10499694;28;20222;-69
2022/11/22 23:58:59;;;;;;;14.35;6.90;;;;;;;;;;10497814;28;20229;-68
